Webcam zuid Meer informatie Webcam zuid


Onweer radar  blitzortung! Fire index


Regen radar Meer informatie rain snow radar


Bezoek onze andere website:

Andere tamplate

Andere tamplate


U vindt ons ook hier:

Het Weer Aktueel

UK Metoffice

European Weather Network

WeatherCloud

Weather Underground

AWEKAS

Citizen Weather Observer Program (CWOP)

HAMweather, WeatherForYou, PWS Weather

Wetterpage 24

Roosendaal op internet

VWKWEB

RadioZuidWestFM



Het weer levert geen direct gevaar op.    Er zijn geen waarschuwingen afgegeven.

METAR rapporten vliegvelden

   
EHWO - Viegbasis Woensdrecht ,Nederland
Afstand tot: ZW 23 km
Gewijzigd: 20-04-2018 16:25
Helder  
Helder  
   Wind: Westen 14.8 km/h
Wind: Westen 14.8 km/h
Temperatuur: 25°C
Dauwpunt: 8°C
Vochtigheid: 34%
Barometer: 1022 hPa
Bewolking: Clear
Zicht: meer dan 10 km
Bewolking: Helder ft
EHWO 201425Z AUTO 28008KT 240V360 9999 NCD 25/08 Q1022 BLU
EHGR - Vliegbasis Gilse-Rijen,Nederland
Afstand tot: O 51 km
Gewijzigd: 20-04-2018 16:25
Helder  
Helder  
   Wind: WNW 20.4 km/h
Wind: WNW 20.4 km/h
Temperatuur: 26°C
Dauwpunt: 11°C
Vochtigheid: 39%
Barometer: 1022 hPa
Bewolking: Clear
Zicht: meer dan 10 km
Bewolking: Helder ft
EHGR 201425Z AUTO 29011KT 260V320 9999 NCD 26/11 Q1022 BLU
EHRD - Vliegbasis Rotterdam, Nederland
Afstand tot: N 65 km
Gewijzigd: 20-04-2018 16:25
Helder  
Helder  
   Wind: Westen 14.8 km/h
Wind: Westen 14.8 km/h
Temperatuur: 23°C
Dauwpunt: 12°C
Vochtigheid: 50%
Barometer: 1022 hPa
Bewolking: Clear
Zicht: meer dan 10 km
Bewolking: Helder ft
EHRD 201425Z AUTO 26008KT 230V310 9999 NCD 23/12 Q1022 NOSIG
EHAM - Schiphol airport, Nederland
Afstand tot: N 118 km
Gewijzigd: 20-04-2018 16:25
Helder  
Helder  
   Wind: Westen 14.8 km/h
Wind: Westen 14.8 km/h
Temperatuur: 23°C
Dauwpunt: 10°C
Vochtigheid: 44%
Barometer: 1022 hPa
Zicht: meer dan 10 km
Bewolking: Helder ft
EHAM 201425Z 26008KT 230V300 CAVOK 23/10 Q1022 NOSIG
EBAW - Antwerp/Deurne, Belgium
Afstand tot: Z 54 km
Gewijzigd: 20-04-2018 16:20
Helder  
Helder  
   Wind: NNW 20.4 km/h
Wind: NNW 20.4 km/h
Temperatuur: 26°C
Dauwpunt: 8°C
Vochtigheid: 32%
Barometer: 1022 hPa
Zicht: meer dan 10 km
Bewolking: Helder ft
EBAW 201420Z 33011KT 300V360 CAVOK 26/08 Q1022 NOSIG
EBBR - Brussel Airport, Belgium
Afstand tot: Z 94 km
Gewijzigd: 20-04-2018 16:20
Helder  
Helder  
   Wind: NW 11.1 km/h
Wind: NW 11.1 km/h
Temperatuur: 27°C
Dauwpunt: 12°C
Vochtigheid: 39%
Barometer: 1022 hPa
Zicht: meer dan 10 km
Bewolking: Helder ft
EBBR 201420Z 31006KT 240V360 CAVOK 27/12 Q1022 NOSIG

Script ontwikkeld door  Saratoga-weather.org Aangepast voor de template door  Weerstation Leuven

Apparatuur in gebruik:

Weerstation
Davis VP2

Weerprogramma
Meteobridge

Weercomputer
Shuttle

Webleverancier
WeservIT

Davis VP2

Meteobridge

Shuttle

WeservIT